sensor_id;sensor_type;location;lat;lon;timestamp;P1;durP1;ratioP1;P2;durP2;ratioP2
61572;SDS011;47465;43.094;12.434;2023-10-31T00:00:48;16.77;;;3.08;;
61572;SDS011;47465;43.094;12.434;2023-10-31T00:03:17;12.90;;;2.97;;
61572;SDS011;47465;43.094;12.434;2023-10-31T00:05:43;12.93;;;2.33;;
61572;SDS011;47465;43.094;12.434;2023-10-31T00:08:09;15.15;;;2.85;;
61572;SDS011;47465;43.094;12.434;2023-10-31T00:10:35;12.80;;;2.80;;
61572;SDS011;47465;43.094;12.434;2023-10-31T00:13:00;16.20;;;2.92;;
61572;SDS011;47465;43.094;12.434;2023-10-31T00:15:30;20.00;;;3.67;;
61572;SDS011;47465;43.094;12.434;2023-10-31T00:17:56;10.73;;;2.55;;
61572;SDS011;47465;43.094;12.434;2023-10-31T00:20:22;14.93;;;2.20;;
61572;SDS011;47465;43.094;12.434;2023-10-31T00:22:48;14.40;;;2.33;;
61572;SDS011;47465;43.094;12.434;2023-10-31T00:25:14;14.80;;;2.67;;
61572;SDS011;47465;43.094;12.434;2023-10-31T00:27:42;12.07;;;2.50;;
61572;SDS011;47465;43.094;12.434;2023-10-31T00:30:08;9.23;;;1.85;;
61572;SDS011;47465;43.094;12.434;2023-10-31T00:32:36;7.75;;;2.10;;
61572;SDS011;47465;43.094;12.434;2023-10-31T00:35:02;10.65;;;2.20;;
61572;SDS011;47465;43.094;12.434;2023-10-31T00:37:28;12.20;;;2.47;;
61572;SDS011;47465;43.094;12.434;2023-10-31T00:39:54;8.27;;;1.83;;
61572;SDS011;47465;43.094;12.434;2023-10-31T00:42:20;16.50;;;1.90;;
61572;SDS011;47465;43.094;12.434;2023-10-31T00:44:46;9.13;;;1.55;;
61572;SDS011;47465;43.094;12.434;2023-10-31T00:47:12;7.88;;;1.60;;
61572;SDS011;47465;43.094;12.434;2023-10-31T00:49:39;11.75;;;1.75;;
61572;SDS011;47465;43.094;12.434;2023-10-31T00:52:05;10.50;;;1.60;;
61572;SDS011;47465;43.094;12.434;2023-10-31T00:54:36;10.00;;;2.10;;
61572;SDS011;47465;43.094;12.434;2023-10-31T00:57:04;9.48;;;1.63;;
61572;SDS011;47465;43.094;12.434;2023-10-31T00:59:30;6.78;;;1.98;;
61572;SDS011;47465;43.094;12.434;2023-10-31T01:01:56;6.30;;;1.73;;
61572;SDS011;47465;43.094;12.434;2023-10-31T01:04:22;7.13;;;1.92;;
61572;SDS011;47465;43.094;12.434;2023-10-31T01:06:52;9.98;;;1.55;;
61572;SDS011;47465;43.094;12.434;2023-10-31T01:09:18;11.20;;;1.92;;
61572;SDS011;47465;43.094;12.434;2023-10-31T01:11:44;5.78;;;1.10;;
61572;SDS011;47465;43.094;12.434;2023-10-31T01:14:10;7.32;;;1.42;;
61572;SDS011;47465;43.094;12.434;2023-10-31T01:16:37;8.95;;;1.50;;
61572;SDS011;47465;43.094;12.434;2023-10-31T01:19:05;4.47;;;1.50;;
61572;SDS011;47465;43.094;12.434;2023-10-31T01:21:31;7.05;;;1.52;;
61572;SDS011;47465;43.094;12.434;2023-10-31T01:23:59;6.10;;;1.50;;
61572;SDS011;47465;43.094;12.434;2023-10-31T01:26:25;7.68;;;1.17;;
61572;SDS011;47465;43.094;12.434;2023-10-31T01:28:51;8.98;;;2.05;;
61572;SDS011;47465;43.094;12.434;2023-10-31T01:31:21;8.00;;;1.30;;
61572;SDS011;47465;43.094;12.434;2023-10-31T01:33:46;7.05;;;1.75;;
61572;SDS011;47465;43.094;12.434;2023-10-31T01:36:12;2.78;;;1.20;;
61572;SDS011;47465;43.094;12.434;2023-10-31T01:38:39;8.25;;;1.85;;
61572;SDS011;47465;43.094;12.434;2023-10-31T01:41:07;9.57;;;1.95;;
61572;SDS011;47465;43.094;12.434;2023-10-31T01:43:35;5.97;;;1.55;;
61572;SDS011;47465;43.094;12.434;2023-10-31T01:46:02;9.80;;;1.42;;
61572;SDS011;47465;43.094;12.434;2023-10-31T01:48:29;6.93;;;1.67;;
61572;SDS011;47465;43.094;12.434;2023-10-31T01:50:56;5.95;;;1.13;;
61572;SDS011;47465;43.094;12.434;2023-10-31T01:53:25;7.45;;;1.40;;
61572;SDS011;47465;43.094;12.434;2023-10-31T01:55:53;5.20;;;1.52;;
61572;SDS011;47465;43.094;12.434;2023-10-31T01:58:25;8.63;;;1.85;;
61572;SDS011;47465;43.094;12.434;2023-10-31T02:00:53;8.63;;;1.30;;
61572;SDS011;47465;43.094;12.434;2023-10-31T02:03:20;5.07;;;1.27;;
61572;SDS011;47465;43.094;12.434;2023-10-31T02:05:50;6.85;;;1.42;;
61572;SDS011;47465;43.094;12.434;2023-10-31T02:08:17;4.10;;;1.23;;
61572;SDS011;47465;43.094;12.434;2023-10-31T02:10:48;8.30;;;1.27;;
61572;SDS011;47465;43.094;12.434;2023-10-31T02:13:17;5.18;;;1.05;;
61572;SDS011;47465;43.094;12.434;2023-10-31T02:15:44;5.82;;;0.93;;
61572;SDS011;47465;43.094;12.434;2023-10-31T02:18:16;5.55;;;1.20;;
61572;SDS011;47465;43.094;12.434;2023-10-31T02:20:42;4.55;;;0.98;;
61572;SDS011;47465;43.094;12.434;2023-10-31T02:23:10;5.13;;;1.10;;
61572;SDS011;47465;43.094;12.434;2023-10-31T02:25:38;7.28;;;1.13;;
61572;SDS011;47465;43.094;12.434;2023-10-31T02:28:04;4.00;;;0.70;;
61572;SDS011;47465;43.094;12.434;2023-10-31T02:30:30;7.65;;;1.27;;
61572;SDS011;47465;43.094;12.434;2023-10-31T02:33:00;5.53;;;0.85;;
61572;SDS011;47465;43.094;12.434;2023-10-31T02:35:28;3.97;;;1.20;;
61572;SDS011;47465;43.094;12.434;2023-10-31T02:37:56;3.15;;;0.85;;
61572;SDS011;47465;43.094;12.434;2023-10-31T02:40:26;9.25;;;1.10;;
61572;SDS011;47465;43.094;12.434;2023-10-31T02:42:52;3.42;;;0.85;;
61572;SDS011;47465;43.094;12.434;2023-10-31T02:45:20;5.60;;;1.10;;
61572;SDS011;47465;43.094;12.434;2023-10-31T02:47:46;4.03;;;1.00;;
61572;SDS011;47465;43.094;12.434;2023-10-31T02:50:15;6.13;;;0.90;;
61572;SDS011;47465;43.094;12.434;2023-10-31T02:52:40;5.78;;;1.05;;
61572;SDS011;47465;43.094;12.434;2023-10-31T02:55:07;5.10;;;1.02;;
61572;SDS011;47465;43.094;12.434;2023-10-31T02:57:34;4.40;;;1.13;;
61572;SDS011;47465;43.094;12.434;2023-10-31T03:00:00;10.98;;;1.27;;
61572;SDS011;47465;43.094;12.434;2023-10-31T03:02:26;9.02;;;1.27;;
61572;SDS011;47465;43.094;12.434;2023-10-31T03:04:52;3.97;;;1.00;;
61572;SDS011;47465;43.094;12.434;2023-10-31T03:07:18;8.30;;;1.45;;
61572;SDS011;47465;43.094;12.434;2023-10-31T03:09:46;3.90;;;1.00;;
61572;SDS011;47465;43.094;12.434;2023-10-31T03:12:12;10.68;;;1.63;;
61572;SDS011;47465;43.094;12.434;2023-10-31T03:14:42;5.13;;;1.10;;
61572;SDS011;47465;43.094;12.434;2023-10-31T03:17:08;5.00;;;0.95;;
61572;SDS011;47465;43.094;12.434;2023-10-31T03:19:36;6.10;;;1.35;;
61572;SDS011;47465;43.094;12.434;2023-10-31T03:22:02;8.30;;;1.38;;
61572;SDS011;47465;43.094;12.434;2023-10-31T03:24:30;11.23;;;1.67;;
61572;SDS011;47465;43.094;12.434;2023-10-31T03:27:00;9.48;;;0.95;;
61572;SDS011;47465;43.094;12.434;2023-10-31T03:29:27;8.27;;;1.33;;
61572;SDS011;47465;43.094;12.434;2023-10-31T03:31:57;6.57;;;1.88;;
61572;SDS011;47465;43.094;12.434;2023-10-31T03:36:50;4.35;;;0.98;;
61572;SDS011;47465;43.094;12.434;2023-10-31T03:39:16;6.93;;;1.30;;
61572;SDS011;47465;43.094;12.434;2023-10-31T03:41:47;5.18;;;1.00;;
61572;SDS011;47465;43.094;12.434;2023-10-31T03:44:13;4.22;;;1.00;;
61572;SDS011;47465;43.094;12.434;2023-10-31T03:46:39;11.48;;;1.42;;
61572;SDS011;47465;43.094;12.434;2023-10-31T03:49:06;6.20;;;1.70;;
61572;SDS011;47465;43.094;12.434;2023-10-31T03:51:32;5.72;;;1.40;;
61572;SDS011;47465;43.094;12.434;2023-10-31T03:54:02;9.15;;;1.33;;
61572;SDS011;47465;43.094;12.434;2023-10-31T03:56:30;8.07;;;1.10;;
61572;SDS011;47465;43.094;12.434;2023-10-31T03:59:05;5.72;;;0.90;;
61572;SDS011;47465;43.094;12.434;2023-10-31T04:01:31;8.90;;;1.55;;
61572;SDS011;47465;43.094;12.434;2023-10-31T04:03:57;5.97;;;1.67;;
61572;SDS011;47465;43.094;12.434;2023-10-31T04:06:24;6.63;;;1.52;;
61572;SDS011;47465;43.094;12.434;2023-10-31T04:08:50;5.90;;;1.33;;
61572;SDS011;47465;43.094;12.434;2023-10-31T04:11:16;8.70;;;1.48;;
61572;SDS011;47465;43.094;12.434;2023-10-31T04:13:42;3.58;;;1.40;;
61572;SDS011;47465;43.094;12.434;2023-10-31T04:16:08;7.95;;;1.52;;
61572;SDS011;47465;43.094;12.434;2023-10-31T04:18:34;5.72;;;0.93;;
61572;SDS011;47465;43.094;12.434;2023-10-31T04:21:04;17.27;;;1.20;;
61572;SDS011;47465;43.094;12.434;2023-10-31T04:23:34;5.05;;;1.80;;
61572;SDS011;47465;43.094;12.434;2023-10-31T04:26:00;8.23;;;1.15;;
61572;SDS011;47465;43.094;12.434;2023-10-31T04:28:26;8.57;;;1.20;;
61572;SDS011;47465;43.094;12.434;2023-10-31T04:30:52;7.90;;;1.17;;
61572;SDS011;47465;43.094;12.434;2023-10-31T04:33:18;6.35;;;1.23;;
61572;SDS011;47465;43.094;12.434;2023-10-31T04:35:44;5.55;;;1.08;;
61572;SDS011;47465;43.094;12.434;2023-10-31T04:38:13;6.30;;;1.30;;
61572;SDS011;47465;43.094;12.434;2023-10-31T04:40:40;6.75;;;1.48;;
61572;SDS011;47465;43.094;12.434;2023-10-31T04:43:09;13.52;;;1.83;;
61572;SDS011;47465;43.094;12.434;2023-10-31T04:45:35;9.25;;;1.38;;
61572;SDS011;47465;43.094;12.434;2023-10-31T04:48:03;8.95;;;1.40;;
61572;SDS011;47465;43.094;12.434;2023-10-31T04:50:32;10.20;;;2.35;;
61572;SDS011;47465;43.094;12.434;2023-10-31T04:52:58;6.07;;;1.40;;
61572;SDS011;47465;43.094;12.434;2023-10-31T04:55:24;9.00;;;1.50;;
61572;SDS011;47465;43.094;12.434;2023-10-31T04:57:52;18.42;;;1.55;;
61572;SDS011;47465;43.094;12.434;2023-10-31T05:00:23;9.50;;;1.70;;
61572;SDS011;47465;43.094;12.434;2023-10-31T05:02:49;15.05;;;1.13;;
61572;SDS011;47465;43.094;12.434;2023-10-31T05:05:15;8.02;;;1.27;;
61572;SDS011;47465;43.094;12.434;2023-10-31T05:07:45;8.35;;;1.50;;
61572;SDS011;47465;43.094;12.434;2023-10-31T05:10:13;10.00;;;1.70;;
61572;SDS011;47465;43.094;12.434;2023-10-31T05:12:41;9.98;;;1.30;;
61572;SDS011;47465;43.094;12.434;2023-10-31T05:15:13;15.20;;;1.55;;
61572;SDS011;47465;43.094;12.434;2023-10-31T05:17:41;7.63;;;1.75;;
61572;SDS011;47465;43.094;12.434;2023-10-31T05:20:08;8.80;;;1.23;;
61572;SDS011;47465;43.094;12.434;2023-10-31T05:22:40;5.38;;;1.15;;
61572;SDS011;47465;43.094;12.434;2023-10-31T05:25:06;5.03;;;1.10;;
61572;SDS011;47465;43.094;12.434;2023-10-31T05:27:35;9.65;;;1.27;;
61572;SDS011;47465;43.094;12.434;2023-10-31T05:30:01;5.70;;;1.33;;
61572;SDS011;47465;43.094;12.434;2023-10-31T05:32:31;5.70;;;1.40;;
61572;SDS011;47465;43.094;12.434;2023-10-31T05:34:57;10.35;;;2.10;;
61572;SDS011;47465;43.094;12.434;2023-10-31T05:37:25;9.55;;;1.30;;
61572;SDS011;47465;43.094;12.434;2023-10-31T05:39:51;5.63;;;1.17;;
61572;SDS011;47465;43.094;12.434;2023-10-31T05:42:17;4.32;;;0.90;;
61572;SDS011;47465;43.094;12.434;2023-10-31T05:44:46;9.63;;;0.93;;
61572;SDS011;47465;43.094;12.434;2023-10-31T05:47:12;6.00;;;0.93;;
61572;SDS011;47465;43.094;12.434;2023-10-31T05:49:39;5.10;;;1.00;;
61572;SDS011;47465;43.094;12.434;2023-10-31T05:52:07;8.07;;;1.00;;
61572;SDS011;47465;43.094;12.434;2023-10-31T05:54:33;7.07;;;1.02;;
61572;SDS011;47465;43.094;12.434;2023-10-31T05:56:59;6.38;;;1.00;;
61572;SDS011;47465;43.094;12.434;2023-10-31T05:59:25;8.00;;;1.25;;
61572;SDS011;47465;43.094;12.434;2023-10-31T06:01:54;4.68;;;1.27;;
61572;SDS011;47465;43.094;12.434;2023-10-31T06:04:23;6.25;;;1.90;;
61572;SDS011;47465;43.094;12.434;2023-10-31T06:06:52;8.10;;;1.40;;
61572;SDS011;47465;43.094;12.434;2023-10-31T06:09:20;7.47;;;1.27;;
61572;SDS011;47465;43.094;12.434;2023-10-31T06:11:50;9.38;;;1.73;;
61572;SDS011;47465;43.094;12.434;2023-10-31T06:14:16;7.80;;;1.50;;
61572;SDS011;47465;43.094;12.434;2023-10-31T06:16:45;8.90;;;2.10;;
61572;SDS011;47465;43.094;12.434;2023-10-31T06:22:17;5.05;;;1.15;;
61572;SDS011;47465;43.094;12.434;2023-10-31T06:24:49;5.35;;;1.20;;
61572;SDS011;47465;43.094;12.434;2023-10-31T06:27:23;9.00;;;1.02;;
61572;SDS011;47465;43.094;12.434;2023-10-31T06:29:52;6.22;;;1.17;;
61572;SDS011;47465;43.094;12.434;2023-10-31T06:32:21;5.22;;;1.38;;
61572;SDS011;47465;43.094;12.434;2023-10-31T06:34:55;9.20;;;1.55;;
61572;SDS011;47465;43.094;12.434;2023-10-31T06:37:22;6.47;;;1.33;;
61572;SDS011;47465;43.094;12.434;2023-10-31T06:39:48;5.90;;;1.00;;
61572;SDS011;47465;43.094;12.434;2023-10-31T06:42:19;9.07;;;1.27;;
61572;SDS011;47465;43.094;12.434;2023-10-31T06:44:48;8.00;;;1.17;;
61572;SDS011;47465;43.094;12.434;2023-10-31T06:47:17;7.55;;;1.35;;
61572;SDS011;47465;43.094;12.434;2023-10-31T06:52:09;9.48;;;1.27;;
61572;SDS011;47465;43.094;12.434;2023-10-31T06:54:39;10.48;;;1.80;;
61572;SDS011;47465;43.094;12.434;2023-10-31T06:57:05;4.20;;;1.10;;
61572;SDS011;47465;43.094;12.434;2023-10-31T06:59:31;4.68;;;1.42;;
61572;SDS011;47465;43.094;12.434;2023-10-31T07:01:57;5.97;;;1.27;;
61572;SDS011;47465;43.094;12.434;2023-10-31T07:04:24;7.25;;;1.33;;
61572;SDS011;47465;43.094;12.434;2023-10-31T07:06:53;6.28;;;1.27;;
61572;SDS011;47465;43.094;12.434;2023-10-31T07:11:49;3.30;;;1.02;;
61572;SDS011;47465;43.094;12.434;2023-10-31T07:14:18;10.02;;;1.17;;
61572;SDS011;47465;43.094;12.434;2023-10-31T07:16:47;3.47;;;0.90;;
61572;SDS011;47465;43.094;12.434;2023-10-31T07:19:17;8.82;;;1.30;;
61572;SDS011;47465;43.094;12.434;2023-10-31T07:21:46;7.43;;;0.90;;
61572;SDS011;47465;43.094;12.434;2023-10-31T07:24:12;7.57;;;1.30;;
61572;SDS011;47465;43.094;12.434;2023-10-31T07:26:41;4.43;;;0.80;;
61572;SDS011;47465;43.094;12.434;2023-10-31T07:29:11;7.60;;;2.53;;
61572;SDS011;47465;43.094;12.434;2023-10-31T07:31:37;6.93;;;1.35;;
61572;SDS011;47465;43.094;12.434;2023-10-31T07:34:06;7.43;;;1.08;;
61572;SDS011;47465;43.094;12.434;2023-10-31T07:36:36;7.15;;;1.27;;
61572;SDS011;47465;43.094;12.434;2023-10-31T07:39:06;5.70;;;0.95;;
61572;SDS011;47465;43.094;12.434;2023-10-31T07:41:36;7.20;;;2.05;;
61572;SDS011;47465;43.094;12.434;2023-10-31T07:44:01;6.25;;;1.10;;
61572;SDS011;47465;43.094;12.434;2023-10-31T07:49:08;3.58;;;0.60;;
61572;SDS011;47465;43.094;12.434;2023-10-31T07:51:37;4.30;;;0.75;;
61572;SDS011;47465;43.094;12.434;2023-10-31T07:54:05;4.72;;;0.60;;
61572;SDS011;47465;43.094;12.434;2023-10-31T07:56:31;5.75;;;0.70;;
61572;SDS011;47465;43.094;12.434;2023-10-31T07:58:59;6.30;;;1.05;;
61572;SDS011;47465;43.094;12.434;2023-10-31T08:01:25;2.50;;;0.63;;
61572;SDS011;47465;43.094;12.434;2023-10-31T08:03:53;2.33;;;0.50;;
61572;SDS011;47465;43.094;12.434;2023-10-31T08:06:20;3.58;;;1.05;;
61572;SDS011;47465;43.094;12.434;2023-10-31T08:08:46;2.03;;;0.70;;
61572;SDS011;47465;43.094;12.434;2023-10-31T08:11:12;2.35;;;1.00;;
61572;SDS011;47465;43.094;12.434;2023-10-31T08:13:41;5.90;;;1.08;;
61572;SDS011;47465;43.094;12.434;2023-10-31T08:16:08;5.45;;;0.85;;
61572;SDS011;47465;43.094;12.434;2023-10-31T08:18:44;2.60;;;0.50;;
61572;SDS011;47465;43.094;12.434;2023-10-31T08:21:12;4.15;;;1.00;;
61572;SDS011;47465;43.094;12.434;2023-10-31T08:23:40;5.88;;;0.60;;
61572;SDS011;47465;43.094;12.434;2023-10-31T08:26:09;5.50;;;1.02;;
61572;SDS011;47465;43.094;12.434;2023-10-31T08:28:38;3.40;;;0.63;;
61572;SDS011;47465;43.094;12.434;2023-10-31T08:31:05;9.50;;;0.93;;
61572;SDS011;47465;43.094;12.434;2023-10-31T08:33:31;3.35;;;0.70;;
61572;SDS011;47465;43.094;12.434;2023-10-31T08:35:56;6.43;;;0.80;;
61572;SDS011;47465;43.094;12.434;2023-10-31T08:38:24;5.10;;;0.77;;
61572;SDS011;47465;43.094;12.434;2023-10-31T08:40:50;4.65;;;0.60;;
61572;SDS011;47465;43.094;12.434;2023-10-31T08:43:18;6.07;;;0.80;;
61572;SDS011;47465;43.094;12.434;2023-10-31T08:45:44;6.63;;;0.80;;
61572;SDS011;47465;43.094;12.434;2023-10-31T08:48:10;4.97;;;0.93;;
61572;SDS011;47465;43.094;12.434;2023-10-31T08:50:36;5.03;;;0.98;;
61572;SDS011;47465;43.094;12.434;2023-10-31T08:53:02;6.38;;;0.77;;
61572;SDS011;47465;43.094;12.434;2023-10-31T08:55:29;10.32;;;0.93;;
61572;SDS011;47465;43.094;12.434;2023-10-31T08:57:55;3.70;;;0.50;;
61572;SDS011;47465;43.094;12.434;2023-10-31T09:00:23;6.18;;;1.00;;
61572;SDS011;47465;43.094;12.434;2023-10-31T09:02:49;7.40;;;1.52;;
61572;SDS011;47465;43.094;12.434;2023-10-31T09:05:15;7.25;;;0.93;;
61572;SDS011;47465;43.094;12.434;2023-10-31T09:07:41;3.63;;;0.80;;
61572;SDS011;47465;43.094;12.434;2023-10-31T09:10:07;4.60;;;0.85;;
61572;SDS011;47465;43.094;12.434;2023-10-31T09:12:35;4.30;;;0.50;;
61572;SDS011;47465;43.094;12.434;2023-10-31T09:15:07;6.88;;;1.00;;
61572;SDS011;47465;43.094;12.434;2023-10-31T09:17:40;5.22;;;1.05;;
61572;SDS011;47465;43.094;12.434;2023-10-31T09:20:09;8.57;;;1.48;;
61572;SDS011;47465;43.094;12.434;2023-10-31T09:22:38;4.88;;;1.00;;
61572;SDS011;47465;43.094;12.434;2023-10-31T09:25:07;6.00;;;1.02;;
61572;SDS011;47465;43.094;12.434;2023-10-31T09:27:43;7.07;;;1.27;;
61572;SDS011;47465;43.094;12.434;2023-10-31T09:30:09;2.15;;;0.90;;
61572;SDS011;47465;43.094;12.434;2023-10-31T09:32:36;5.13;;;0.93;;
61572;SDS011;47465;43.094;12.434;2023-10-31T09:35:02;5.57;;;0.95;;
61572;SDS011;47465;43.094;12.434;2023-10-31T09:37:31;6.65;;;0.75;;
61572;SDS011;47465;43.094;12.434;2023-10-31T09:39:57;4.47;;;1.08;;
61572;SDS011;47465;43.094;12.434;2023-10-31T09:42:22;7.30;;;1.42;;
61572;SDS011;47465;43.094;12.434;2023-10-31T09:44:50;4.68;;;0.73;;
61572;SDS011;47465;43.094;12.434;2023-10-31T09:47:18;5.97;;;0.98;;
61572;SDS011;47465;43.094;12.434;2023-10-31T09:49:45;4.60;;;0.95;;
61572;SDS011;47465;43.094;12.434;2023-10-31T09:52:12;4.75;;;0.70;;
61572;SDS011;47465;43.094;12.434;2023-10-31T09:54:39;8.48;;;1.30;;
61572;SDS011;47465;43.094;12.434;2023-10-31T09:57:06;24.33;;;2.22;;
61572;SDS011;47465;43.094;12.434;2023-10-31T09:59:34;10.98;;;2.10;;
61572;SDS011;47465;43.094;12.434;2023-10-31T10:02:03;10.15;;;1.55;;
61572;SDS011;47465;43.094;12.434;2023-10-31T10:04:38;4.45;;;0.88;;
61572;SDS011;47465;43.094;12.434;2023-10-31T10:07:07;10.73;;;1.05;;
61572;SDS011;47465;43.094;12.434;2023-10-31T10:09:38;5.75;;;1.52;;
61572;SDS011;47465;43.094;12.434;2023-10-31T10:12:07;7.25;;;1.00;;
61572;SDS011;47465;43.094;12.434;2023-10-31T10:14:36;4.70;;;0.88;;
61572;SDS011;47465;43.094;12.434;2023-10-31T10:17:15;5.85;;;0.95;;
61572;SDS011;47465;43.094;12.434;2023-10-31T10:19:46;7.63;;;1.05;;
61572;SDS011;47465;43.094;12.434;2023-10-31T10:22:12;3.90;;;0.75;;
61572;SDS011;47465;43.094;12.434;2023-10-31T10:24:39;3.35;;;1.38;;
61572;SDS011;47465;43.094;12.434;2023-10-31T10:27:06;6.60;;;1.88;;
61572;SDS011;47465;43.094;12.434;2023-10-31T10:29:35;3.55;;;0.65;;
61572;SDS011;47465;43.094;12.434;2023-10-31T10:32:04;5.65;;;0.80;;
61572;SDS011;47465;43.094;12.434;2023-10-31T10:34:35;6.13;;;0.60;;
61572;SDS011;47465;43.094;12.434;2023-10-31T10:37:04;2.85;;;0.50;;
61572;SDS011;47465;43.094;12.434;2023-10-31T10:39:36;3.05;;;0.40;;
61572;SDS011;47465;43.094;12.434;2023-10-31T10:42:06;6.55;;;0.68;;
61572;SDS011;47465;43.094;12.434;2023-10-31T10:44:38;2.10;;;0.47;;
61572;SDS011;47465;43.094;12.434;2023-10-31T10:47:08;8.88;;;0.93;;
61572;SDS011;47465;43.094;12.434;2023-10-31T10:49:41;1.92;;;0.70;;
61572;SDS011;47465;43.094;12.434;2023-10-31T10:52:12;5.63;;;1.08;;
61572;SDS011;47465;43.094;12.434;2023-10-31T10:54:44;4.45;;;0.50;;
61572;SDS011;47465;43.094;12.434;2023-10-31T10:57:19;4.13;;;0.60;;
61572;SDS011;47465;43.094;12.434;2023-10-31T10:59:49;3.78;;;0.65;;
61572;SDS011;47465;43.094;12.434;2023-10-31T11:02:22;2.85;;;0.47;;
61572;SDS011;47465;43.094;12.434;2023-10-31T11:04:55;2.25;;;0.40;;
61572;SDS011;47465;43.094;12.434;2023-10-31T11:07:22;1.73;;;0.60;;
61572;SDS011;47465;43.094;12.434;2023-10-31T11:09:49;5.72;;;0.30;;
61572;SDS011;47465;43.094;12.434;2023-10-31T11:12:16;4.05;;;0.30;;
61572;SDS011;47465;43.094;12.434;2023-10-31T11:14:45;2.13;;;0.80;;
61572;SDS011;47465;43.094;12.434;2023-10-31T11:17:14;3.03;;;0.73;;
61572;SDS011;47465;43.094;12.434;2023-10-31T11:19:49;1.75;;;0.30;;
61572;SDS011;47465;43.094;12.434;2023-10-31T11:22:21;0.30;;;0.30;;
61572;SDS011;47465;43.094;12.434;2023-10-31T11:24:48;0.68;;;0.22;;
61572;SDS011;47465;43.094;12.434;2023-10-31T11:27:15;1.52;;;0.63;;
61572;SDS011;47465;43.094;12.434;2023-10-31T11:29:43;0.52;;;0.50;;
61572;SDS011;47465;43.094;12.434;2023-10-31T11:32:13;1.52;;;0.38;;
61572;SDS011;47465;43.094;12.434;2023-10-31T11:34:41;2.90;;;0.30;;
61572;SDS011;47465;43.094;12.434;2023-10-31T11:37:25;1.05;;;0.40;;
61572;SDS011;47465;43.094;12.434;2023-10-31T11:42:43;2.03;;;0.35;;
61572;SDS011;47465;43.094;12.434;2023-10-31T11:45:13;2.88;;;0.50;;
61572;SDS011;47465;43.094;12.434;2023-10-31T11:47:49;2.05;;;0.22;;
61572;SDS011;47465;43.094;12.434;2023-10-31T11:50:16;1.08;;;0.28;;
61572;SDS011;47465;43.094;12.434;2023-10-31T11:52:49;0.88;;;0.38;;
61572;SDS011;47465;43.094;12.434;2023-10-31T11:55:24;3.05;;;0.50;;
61572;SDS011;47465;43.094;12.434;2023-10-31T11:57:50;2.38;;;0.40;;
61572;SDS011;47465;43.094;12.434;2023-10-31T12:00:20;5.13;;;0.80;;
61572;SDS011;47465;43.094;12.434;2023-10-31T12:02:56;0.45;;;0.28;;
61572;SDS011;47465;43.094;12.434;2023-10-31T12:05:24;4.22;;;0.47;;
61572;SDS011;47465;43.094;12.434;2023-10-31T12:07:52;0.50;;;0.30;;
61572;SDS011;47465;43.094;12.434;2023-10-31T12:10:22;1.95;;;0.43;;
61572;SDS011;47465;43.094;12.434;2023-10-31T12:12:49;0.93;;;0.50;;
61572;SDS011;47465;43.094;12.434;2023-10-31T12:15:16;2.92;;;0.52;;
61572;SDS011;47465;43.094;12.434;2023-10-31T12:17:44;1.83;;;0.40;;
61572;SDS011;47465;43.094;12.434;2023-10-31T12:20:11;2.47;;;0.32;;
61572;SDS011;47465;43.094;12.434;2023-10-31T12:22:38;2.08;;;0.70;;
61572;SDS011;47465;43.094;12.434;2023-10-31T12:25:07;2.95;;;0.32;;
61572;SDS011;47465;43.094;12.434;2023-10-31T12:27:47;3.53;;;0.40;;
61572;SDS011;47465;43.094;12.434;2023-10-31T12:30:15;1.50;;;0.40;;
61572;SDS011;47465;43.094;12.434;2023-10-31T12:32:42;5.63;;;0.85;;
61572;SDS011;47465;43.094;12.434;2023-10-31T12:35:13;1.00;;;0.40;;
61572;SDS011;47465;43.094;12.434;2023-10-31T12:37:49;3.45;;;0.82;;
61572;SDS011;47465;43.094;12.434;2023-10-31T12:40:18;2.30;;;0.47;;
61572;SDS011;47465;43.094;12.434;2023-10-31T12:45:20;1.08;;;0.32;;
61572;SDS011;47465;43.094;12.434;2023-10-31T12:50:38;6.03;;;0.43;;
61572;SDS011;47465;43.094;12.434;2023-10-31T12:53:09;2.75;;;0.75;;
61572;SDS011;47465;43.094;12.434;2023-10-31T12:55:56;5.97;;;0.70;;
61572;SDS011;47465;43.094;12.434;2023-10-31T12:58:29;1.50;;;0.60;;
61572;SDS011;47465;43.094;12.434;2023-10-31T13:00:57;2.08;;;0.43;;
61572;SDS011;47465;43.094;12.434;2023-10-31T13:03:26;1.50;;;0.32;;
61572;SDS011;47465;43.094;12.434;2023-10-31T13:05:52;1.90;;;0.30;;
61572;SDS011;47465;43.094;12.434;2023-10-31T13:08:18;2.40;;;0.80;;
61572;SDS011;47465;43.094;12.434;2023-10-31T13:13:14;1.35;;;0.50;;
61572;SDS011;47465;43.094;12.434;2023-10-31T13:15:41;2.50;;;0.40;;
61572;SDS011;47465;43.094;12.434;2023-10-31T13:18:07;0.75;;;0.30;;
61572;SDS011;47465;43.094;12.434;2023-10-31T13:20:36;2.25;;;0.60;;
61572;SDS011;47465;43.094;12.434;2023-10-31T13:23:05;1.67;;;0.22;;
61572;SDS011;47465;43.094;12.434;2023-10-31T13:25:34;0.88;;;0.45;;
61572;SDS011;47465;43.094;12.434;2023-10-31T13:28:00;1.52;;;0.43;;
61572;SDS011;47465;43.094;12.434;2023-10-31T13:30:28;1.25;;;0.30;;
61572;SDS011;47465;43.094;12.434;2023-10-31T13:32:56;1.30;;;0.40;;
61572;SDS011;47465;43.094;12.434;2023-10-31T13:35:22;1.02;;;0.40;;
61572;SDS011;47465;43.094;12.434;2023-10-31T13:37:51;0.98;;;0.45;;
61572;SDS011;47465;43.094;12.434;2023-10-31T13:40:17;4.15;;;0.60;;
61572;SDS011;47465;43.094;12.434;2023-10-31T13:42:44;2.17;;;0.30;;
61572;SDS011;47465;43.094;12.434;2023-10-31T13:45:10;1.33;;;0.60;;
61572;SDS011;47465;43.094;12.434;2023-10-31T13:47:53;0.73;;;0.30;;
61572;SDS011;47465;43.094;12.434;2023-10-31T13:50:20;2.22;;;0.30;;
61572;SDS011;47465;43.094;12.434;2023-10-31T13:52:46;0.80;;;0.20;;
61572;SDS011;47465;43.094;12.434;2023-10-31T13:55:14;0.88;;;0.20;;
61572;SDS011;47465;43.094;12.434;2023-10-31T13:57:39;1.02;;;0.32;;
61572;SDS011;47465;43.094;12.434;2023-10-31T14:00:06;0.30;;;0.10;;
61572;SDS011;47465;43.094;12.434;2023-10-31T14:02:37;1.20;;;0.40;;
61572;SDS011;47465;43.094;12.434;2023-10-31T14:05:08;3.75;;;0.43;;
61572;SDS011;47465;43.094;12.434;2023-10-31T14:07:34;1.00;;;0.40;;
61572;SDS011;47465;43.094;12.434;2023-10-31T14:10:04;0.32;;;0.10;;
61572;SDS011;47465;43.094;12.434;2023-10-31T14:12:30;0.43;;;0.20;;
61572;SDS011;47465;43.094;12.434;2023-10-31T14:14:56;2.67;;;0.30;;
61572;SDS011;47465;43.094;12.434;2023-10-31T14:17:22;1.00;;;0.20;;
61572;SDS011;47465;43.094;12.434;2023-10-31T14:19:48;1.52;;;0.38;;
61572;SDS011;47465;43.094;12.434;2023-10-31T14:22:40;1.17;;;0.30;;
61572;SDS011;47465;43.094;12.434;2023-10-31T14:25:11;1.17;;;0.30;;
61572;SDS011;47465;43.094;12.434;2023-10-31T14:27:40;1.48;;;0.17;;
61572;SDS011;47465;43.094;12.434;2023-10-31T14:30:08;0.93;;;0.20;;
61572;SDS011;47465;43.094;12.434;2023-10-31T14:32:34;2.55;;;0.30;;
61572;SDS011;47465;43.094;12.434;2023-10-31T14:35:00;0.82;;;0.30;;
61572;SDS011;47465;43.094;12.434;2023-10-31T14:39:56;0.40;;;0.28;;
61572;SDS011;47465;43.094;12.434;2023-10-31T14:42:23;2.58;;;0.30;;
61572;SDS011;47465;43.094;12.434;2023-10-31T14:44:49;0.45;;;0.30;;
61572;SDS011;47465;43.094;12.434;2023-10-31T14:47:15;2.30;;;0.52;;
61572;SDS011;47465;43.094;12.434;2023-10-31T14:49:41;1.15;;;0.20;;
61572;SDS011;47465;43.094;12.434;2023-10-31T14:52:07;2.72;;;0.70;;
61572;SDS011;47465;43.094;12.434;2023-10-31T14:54:35;1.05;;;0.35;;
61572;SDS011;47465;43.094;12.434;2023-10-31T14:57:01;1.38;;;0.20;;
61572;SDS011;47465;43.094;12.434;2023-10-31T14:59:30;4.78;;;0.80;;
61572;SDS011;47465;43.094;12.434;2023-10-31T15:01:59;1.88;;;0.20;;
61572;SDS011;47465;43.094;12.434;2023-10-31T15:04:25;2.92;;;0.20;;